4XLOK LLHZ-LLHA
Flight info
| Callsign | 4XLOK |
|---|---|
| Flight time | N/A |
| Altitude | 6000 |
| Route | BAZRA ATLIT DCT GALIM |
| Aircraft | BE36/L-BDFGLORY/S |
Departure
| Time | N/A |
|---|---|
| Airport | Herzliya Airport (LLHZ) |
Arrival
| Time | 2026-04-17 11:26 |
|---|---|
| Airport | Uri Michaeli Haifa International Airport (LLHA) |
| Time | Latitude | Longitude | Altitude | Speed | Heading |
|---|---|---|---|---|---|
| 2026-04-17 11:14 | 32.59024 | 34.94604 | 1480 ft | 129 kts | 17° |
| 2026-04-17 11:14 | 32.59632 | 34.94725 | 1481 ft | 135 kts | 8° |
| 2026-04-17 11:14 | 32.60572 | 34.94897 | 1469 ft | 139 kts | 12° |
| 2026-04-17 11:14 | 32.61512 | 34.95097 | 1501 ft | 135 kts | 11° |
| 2026-04-17 11:15 | 32.62436 | 34.95282 | 1502 ft | 133 kts | 13° |
| 2026-04-17 11:15 | 32.63388 | 34.95476 | 1496 ft | 143 kts | 12° |
| 2026-04-17 11:15 | 32.64370 | 34.95659 | 1501 ft | 142 kts | 12° |
| 2026-04-17 11:15 | 32.65369 | 34.95868 | 1494 ft | 149 kts | 14° |
| 2026-04-17 11:16 | 32.66406 | 34.96084 | 1502 ft | 153 kts | 12° |
| 2026-04-17 11:16 | 32.67446 | 34.96284 | 1498 ft | 150 kts | 13° |
| 2026-04-17 11:16 | 32.68473 | 34.96490 | 1490 ft | 149 kts | 12° |
| 2026-04-17 11:16 | 32.69497 | 34.96636 | 1484 ft | 149 kts | 358° |
| 2026-04-17 11:17 | 32.70388 | 34.96068 | 1475 ft | 148 kts | 308° |
| 2026-04-17 11:17 | 32.70733 | 34.94960 | 1471 ft | 144 kts | 266° |
| 2026-04-17 11:17 | 32.70625 | 34.93782 | 1497 ft | 148 kts | 267° |
| 2026-04-17 11:17 | 32.70997 | 34.92697 | 1472 ft | 145 kts | 315° |
| 2026-04-17 11:18 | 32.71875 | 34.92218 | 1482 ft | 138 kts | 359° |
| 2026-04-17 11:18 | 32.72794 | 34.92402 | 1476 ft | 131 kts | 18° |
| 2026-04-17 11:18 | 32.73681 | 34.92641 | 1476 ft | 130 kts | 16° |
| 2026-04-17 11:18 | 32.74562 | 34.92891 | 1474 ft | 130 kts | 17° |
| 2026-04-17 11:19 | 32.75431 | 34.93139 | 1479 ft | 126 kts | 18° |
| 2026-04-17 11:19 | 32.76272 | 34.93378 | 1474 ft | 125 kts | 18° |
| 2026-04-17 11:19 | 32.77127 | 34.93625 | 1472 ft | 128 kts | 17° |
| 2026-04-17 11:19 | 32.77974 | 34.93864 | 1479 ft | 125 kts | 17° |
| 2026-04-17 11:20 | 32.78823 | 34.94108 | 1484 ft | 126 kts | 17° |
| 2026-04-17 11:20 | 32.79678 | 34.94368 | 1491 ft | 127 kts | 26° |
| 2026-04-17 11:20 | 32.80456 | 34.94860 | 1484 ft | 126 kts | 32° |
| 2026-04-17 11:20 | 32.81221 | 34.95341 | 1488 ft | 128 kts | 32° |
| 2026-04-17 11:21 | 32.82070 | 34.95880 | 1488 ft | 147 kts | 36° |
| 2026-04-17 11:21 | 32.82702 | 34.96802 | 1491 ft | 142 kts | 68° |
| 2026-04-17 11:21 | 32.82907 | 34.97915 | 1529 ft | 137 kts | 86° |
| 2026-04-17 11:21 | 32.83094 | 34.99065 | 1551 ft | 145 kts | 81° |
| 2026-04-17 11:22 | 32.83282 | 35.00230 | 1436 ft | 143 kts | 83° |
| 2026-04-17 11:22 | 32.83436 | 35.01398 | 1356 ft | 141 kts | 83° |
| 2026-04-17 11:22 | 32.83594 | 35.02542 | 1177 ft | 140 kts | 84° |
| 2026-04-17 11:22 | 32.83551 | 35.03655 | 1076 ft | 131 kts | 115° |
| 2026-04-17 11:23 | 32.83071 | 35.04550 | 1033 ft | 127 kts | 128° |
| 2026-04-17 11:23 | 32.82510 | 35.05328 | 1070 ft | 122 kts | 134° |
| 2026-04-17 11:23 | 32.81937 | 35.06067 | 1001 ft | 127 kts | 134° |
| 2026-04-17 11:23 | 32.81340 | 35.06852 | 932 ft | 126 kts | 132° |
| 2026-04-17 11:24 | 32.80751 | 35.07572 | 852 ft | 117 kts | 139° |
| 2026-04-17 11:24 | 32.80049 | 35.07968 | 846 ft | 110 kts | 174° |
| 2026-04-17 11:24 | 32.79299 | 35.07861 | 798 ft | 113 kts | 211° |
| 2026-04-17 11:24 | 32.78721 | 35.07153 | 680 ft | 126 kts | 227° |
| 2026-04-17 11:25 | 32.78163 | 35.06335 | 590 ft | 128 kts | 230° |
| 2026-04-17 11:25 | 32.77868 | 35.05452 | 649 ft | 110 kts | 264° |
| 2026-04-17 11:25 | 32.78163 | 35.04706 | 634 ft | 98 kts | 330° |
| 2026-04-17 11:25 | 32.78819 | 35.04634 | 467 ft | 104 kts | 9° |
| 2026-04-17 11:26 | 32.79553 | 35.04807 | 374 ft | 109 kts | 8° |
| 2026-04-17 11:26 | 32.80265 | 35.04692 | 127 ft | 96 kts | 340° |
| 2026-04-17 11:26 | 32.80817 | 35.04460 | 21 ft | 70 kts | 339° |
| 2026-04-17 11:26 | 32.81142 | 35.04315 | 21 ft | 21 kts | 329° |
| 2026-04-17 11:27 | 32.81145 | 35.04177 | 19 ft | 18 kts | 286° |
| 2026-04-17 11:27 | 32.81168 | 35.04169 | 19 ft | 0 kts | 131° |